Search for airport 
image banner adimage banner adimage banner ad
image banner ad

CA630 - Midway (Cba4)

Located in , Canada

ICAO - , IATA -

Data provided by Airmate  

General information

Coordinates: N67°14'28" W135°18'24"
Elevation is feet MSL.
 
View others Airports in Northwest Territories

Operational data

Special qualification required
Current time UTC:
Current local time:
Weather at : CZFM - Fort Mcpherson ( 27 km )
METAR: CZFM 221517Z 14003KT 120V200 10SM BKN110 M06/M08 A2936 RMK AS6 SNWCVR/MUCH LOOSE SLP947
View NOTAMs / SUP AIP / TFR affecting this airport [VIEW]
Communications frequencies: [VIEW]

Runways:

Airport contact information

Address: Canada

Satellite view of CA630